sensor_id;sensor_type;location;lat;lon;timestamp;temperature;humidity
65972;SHT31;52726;48.852;9.152;2023-07-13T00:00:27;19.00;66.12
65972;SHT31;52726;48.852;9.152;2023-07-13T00:02:53;18.93;65.64
65972;SHT31;52726;48.852;9.152;2023-07-13T00:05:20;18.88;65.47
65972;SHT31;52726;48.852;9.152;2023-07-13T00:07:45;18.88;65.11
65972;SHT31;52726;48.852;9.152;2023-07-13T00:10:11;18.83;65.42
65972;SHT31;52726;48.852;9.152;2023-07-13T00:12:38;18.84;65.19
65972;SHT31;52726;48.852;9.152;2023-07-13T00:15:07;18.81;64.61
65972;SHT31;52726;48.852;9.152;2023-07-13T00:17:33;18.78;65.02
65972;SHT31;52726;48.852;9.152;2023-07-13T00:19:58;18.73;65.10
65972;SHT31;52726;48.852;9.152;2023-07-13T00:22:24;18.66;65.58
65972;SHT31;52726;48.852;9.152;2023-07-13T00:24:53;18.56;65.65
65972;SHT31;52726;48.852;9.152;2023-07-13T00:27:21;18.49;66.20
65972;SHT31;52726;48.852;9.152;2023-07-13T00:29:47;18.33;66.75
65972;SHT31;52726;48.852;9.152;2023-07-13T00:32:12;18.24;67.13
65972;SHT31;52726;48.852;9.152;2023-07-13T00:34:38;18.16;67.31
65972;SHT31;52726;48.852;9.152;2023-07-13T00:37:05;18.08;67.74
65972;SHT31;52726;48.852;9.152;2023-07-13T00:39:32;18.00;67.56
65972;SHT31;52726;48.852;9.152;2023-07-13T00:41:58;18.00;67.81
65972;SHT31;52726;48.852;9.152;2023-07-13T00:44:23;18.00;67.40
65972;SHT31;52726;48.852;9.152;2023-07-13T00:46:49;17.92;67.38
65972;SHT31;52726;48.852;9.152;2023-07-13T00:49:17;17.92;67.54
65972;SHT31;52726;48.852;9.152;2023-07-13T00:51:50;17.88;67.62
65972;SHT31;52726;48.852;9.152;2023-07-13T00:54:33;17.85;67.60
65972;SHT31;52726;48.852;9.152;2023-07-13T00:57:03;17.84;67.46
65972;SHT31;52726;48.852;9.152;2023-07-13T00:59:30;17.80;67.78
65972;SHT31;52726;48.852;9.152;2023-07-13T01:01:56;17.73;67.70
65972;SHT31;52726;48.852;9.152;2023-07-13T01:04:24;17.74;67.91
65972;SHT31;52726;48.852;9.152;2023-07-13T01:06:50;17.69;68.08
65972;SHT31;52726;48.852;9.152;2023-07-13T01:09:28;17.63;68.16
65972;SHT31;52726;48.852;9.152;2023-07-13T01:11:53;17.60;67.87
65972;SHT31;52726;48.852;9.152;2023-07-13T01:14:19;17.59;67.97
65972;SHT31;52726;48.852;9.152;2023-07-13T01:16:46;17.50;68.13
65972;SHT31;52726;48.852;9.152;2023-07-13T01:22:02;17.46;68.38
65972;SHT31;52726;48.852;9.152;2023-07-13T01:24:28;17.47;67.95
65972;SHT31;52726;48.852;9.152;2023-07-13T01:26:54;17.40;68.09
65972;SHT31;52726;48.852;9.152;2023-07-13T01:29:20;17.39;68.39
65972;SHT31;52726;48.852;9.152;2023-07-13T01:31:45;17.40;68.50
65972;SHT31;52726;48.852;9.152;2023-07-13T01:34:11;17.33;68.86
65972;SHT31;52726;48.852;9.152;2023-07-13T01:36:36;17.26;68.83
65972;SHT31;52726;48.852;9.152;2023-07-13T01:39:03;17.25;69.61
65972;SHT31;52726;48.852;9.152;2023-07-13T01:41:28;17.22;69.94
65972;SHT31;52726;48.852;9.152;2023-07-13T01:43:54;17.19;69.58
65972;SHT31;52726;48.852;9.152;2023-07-13T01:46:19;17.16;69.11
65972;SHT31;52726;48.852;9.152;2023-07-13T01:48:44;17.15;70.15
65972;SHT31;52726;48.852;9.152;2023-07-13T01:51:10;17.12;69.63
65972;SHT31;52726;48.852;9.152;2023-07-13T01:53:36;17.11;69.60
65972;SHT31;52726;48.852;9.152;2023-07-13T01:56:02;17.06;69.53
65972;SHT31;52726;48.852;9.152;2023-07-13T01:58:27;17.05;68.81
65972;SHT31;52726;48.852;9.152;2023-07-13T02:00:52;17.09;67.91
65972;SHT31;52726;48.852;9.152;2023-07-13T02:03:18;17.19;67.48
65972;SHT31;52726;48.852;9.152;2023-07-13T02:05:45;17.26;67.39
65972;SHT31;52726;48.852;9.152;2023-07-13T02:08:10;17.32;66.58
65972;SHT31;52726;48.852;9.152;2023-07-13T02:10:37;17.36;66.83
65972;SHT31;52726;48.852;9.152;2023-07-13T02:13:05;17.33;66.85
65972;SHT31;52726;48.852;9.152;2023-07-13T02:15:31;17.35;66.59
65972;SHT31;52726;48.852;9.152;2023-07-13T02:17:56;17.32;66.66
65972;SHT31;52726;48.852;9.152;2023-07-13T02:20:24;17.30;67.03
65972;SHT31;52726;48.852;9.152;2023-07-13T02:22:49;17.25;67.05
65972;SHT31;52726;48.852;9.152;2023-07-13T02:25:15;17.23;67.39
65972;SHT31;52726;48.852;9.152;2023-07-13T02:27:40;17.20;67.24
65972;SHT31;52726;48.852;9.152;2023-07-13T02:30:06;17.22;67.14
65972;SHT31;52726;48.852;9.152;2023-07-13T02:32:32;17.18;67.68
65972;SHT31;52726;48.852;9.152;2023-07-13T02:34:59;17.14;67.49
65972;SHT31;52726;48.852;9.152;2023-07-13T02:37:24;17.09;68.48
65972;SHT31;52726;48.852;9.152;2023-07-13T02:39:49;17.05;68.47
65972;SHT31;52726;48.852;9.152;2023-07-13T02:42:15;16.99;68.97
65972;SHT31;52726;48.852;9.152;2023-07-13T02:44:40;16.91;69.60
65972;SHT31;52726;48.852;9.152;2023-07-13T02:47:06;16.81;70.02
65972;SHT31;52726;48.852;9.152;2023-07-13T02:49:31;16.78;70.35
65972;SHT31;52726;48.852;9.152;2023-07-13T02:51:57;16.68;70.84
65972;SHT31;52726;48.852;9.152;2023-07-13T02:54:22;16.58;71.30
65972;SHT31;52726;48.852;9.152;2023-07-13T02:56:48;16.46;72.00
65972;SHT31;52726;48.852;9.152;2023-07-13T02:59:13;16.30;72.62
65972;SHT31;52726;48.852;9.152;2023-07-13T03:01:39;16.19;73.10
65972;SHT31;52726;48.852;9.152;2023-07-13T03:04:05;16.08;74.08
65972;SHT31;52726;48.852;9.152;2023-07-13T03:06:31;16.02;74.53
65972;SHT31;52726;48.852;9.152;2023-07-13T03:08:57;15.96;74.51
65972;SHT31;52726;48.852;9.152;2023-07-13T03:11:22;15.89;74.90
65972;SHT31;52726;48.852;9.152;2023-07-13T03:13:47;15.86;74.67
65972;SHT31;52726;48.852;9.152;2023-07-13T03:16:14;15.82;75.28
65972;SHT31;52726;48.852;9.152;2023-07-13T03:18:41;15.79;75.52
65972;SHT31;52726;48.852;9.152;2023-07-13T03:21:06;15.78;75.98
65972;SHT31;52726;48.852;9.152;2023-07-13T03:23:32;15.81;75.61
65972;SHT31;52726;48.852;9.152;2023-07-13T03:26:06;15.79;76.50
65972;SHT31;52726;48.852;9.152;2023-07-13T03:28:32;15.81;76.37
65972;SHT31;52726;48.852;9.152;2023-07-13T03:31:03;15.78;76.49
65972;SHT31;52726;48.852;9.152;2023-07-13T03:33:29;15.85;76.23
65972;SHT31;52726;48.852;9.152;2023-07-13T03:35:55;15.86;76.33
65972;SHT31;52726;48.852;9.152;2023-07-13T03:38:21;15.88;75.14
65972;SHT31;52726;48.852;9.152;2023-07-13T03:40:46;15.92;75.33
65972;SHT31;52726;48.852;9.152;2023-07-13T03:43:11;15.95;74.55
65972;SHT31;52726;48.852;9.152;2023-07-13T03:45:40;15.96;74.76
65972;SHT31;52726;48.852;9.152;2023-07-13T03:48:06;16.03;75.68
65972;SHT31;52726;48.852;9.152;2023-07-13T03:50:31;16.05;75.54
65972;SHT31;52726;48.852;9.152;2023-07-13T03:52:58;16.12;75.58
65972;SHT31;52726;48.852;9.152;2023-07-13T03:55:23;16.10;74.95
65972;SHT31;52726;48.852;9.152;2023-07-13T03:57:57;16.17;74.68
65972;SHT31;52726;48.852;9.152;2023-07-13T04:00:23;16.16;74.98
65972;SHT31;52726;48.852;9.152;2023-07-13T04:02:48;16.19;75.18
65972;SHT31;52726;48.852;9.152;2023-07-13T04:05:15;16.19;73.93
65972;SHT31;52726;48.852;9.152;2023-07-13T04:07:40;16.22;72.53
65972;SHT31;52726;48.852;9.152;2023-07-13T04:10:06;16.27;72.29
65972;SHT31;52726;48.852;9.152;2023-07-13T04:12:31;16.33;72.45
65972;SHT31;52726;48.852;9.152;2023-07-13T04:14:56;16.39;71.43
65972;SHT31;52726;48.852;9.152;2023-07-13T04:17:22;16.41;71.30
65972;SHT31;52726;48.852;9.152;2023-07-13T04:19:47;16.49;71.08
65972;SHT31;52726;48.852;9.152;2023-07-13T04:22:14;16.56;70.55
65972;SHT31;52726;48.852;9.152;2023-07-13T04:24:39;16.64;69.66
65972;SHT31;52726;48.852;9.152;2023-07-13T04:27:05;16.69;69.36
65972;SHT31;52726;48.852;9.152;2023-07-13T04:29:30;16.77;68.93
65972;SHT31;52726;48.852;9.152;2023-07-13T04:31:55;16.81;69.27
65972;SHT31;52726;48.852;9.152;2023-07-13T04:34:21;16.77;69.27
65972;SHT31;52726;48.852;9.152;2023-07-13T04:36:46;16.75;69.56
65972;SHT31;52726;48.852;9.152;2023-07-13T04:39:11;16.72;69.69
65972;SHT31;52726;48.852;9.152;2023-07-13T04:41:37;16.68;69.26
65972;SHT31;52726;48.852;9.152;2023-07-13T04:44:02;16.67;69.67
65972;SHT31;52726;48.852;9.152;2023-07-13T04:46:28;16.64;69.37
65972;SHT31;52726;48.852;9.152;2023-07-13T04:48:53;16.60;70.89
65972;SHT31;52726;48.852;9.152;2023-07-13T04:51:19;16.53;72.67
65972;SHT31;52726;48.852;9.152;2023-07-13T04:53:45;16.46;72.60
65972;SHT31;52726;48.852;9.152;2023-07-13T04:56:10;16.43;72.92
65972;SHT31;52726;48.852;9.152;2023-07-13T04:58:35;16.44;72.80
65972;SHT31;52726;48.852;9.152;2023-07-13T05:01:02;16.43;72.03
65972;SHT31;52726;48.852;9.152;2023-07-13T05:03:28;16.44;72.88
65972;SHT31;52726;48.852;9.152;2023-07-13T05:06:02;16.49;73.00
65972;SHT31;52726;48.852;9.152;2023-07-13T05:08:28;16.54;72.89
65972;SHT31;52726;48.852;9.152;2023-07-13T05:10:54;16.60;73.19
65972;SHT31;52726;48.852;9.152;2023-07-13T05:13:20;16.67;72.88
65972;SHT31;52726;48.852;9.152;2023-07-13T05:15:47;16.81;72.87
65972;SHT31;52726;48.852;9.152;2023-07-13T05:18:12;16.88;72.36
65972;SHT31;52726;48.852;9.152;2023-07-13T05:20:37;17.01;71.71
65972;SHT31;52726;48.852;9.152;2023-07-13T05:23:03;17.14;71.09
65972;SHT31;52726;48.852;9.152;2023-07-13T05:25:28;17.22;71.18
65972;SHT31;52726;48.852;9.152;2023-07-13T05:27:53;17.30;71.07
65972;SHT31;52726;48.852;9.152;2023-07-13T05:30:19;17.35;70.83
65972;SHT31;52726;48.852;9.152;2023-07-13T05:32:44;17.44;71.20
65972;SHT31;52726;48.852;9.152;2023-07-13T05:35:10;17.54;71.21
65972;SHT31;52726;48.852;9.152;2023-07-13T05:37:37;17.55;70.56
65972;SHT31;52726;48.852;9.152;2023-07-13T05:40:03;17.57;69.96
65972;SHT31;52726;48.852;9.152;2023-07-13T05:42:29;17.59;70.53
65972;SHT31;52726;48.852;9.152;2023-07-13T05:44:56;17.62;70.56
65972;SHT31;52726;48.852;9.152;2023-07-13T05:47:21;17.64;70.41
65972;SHT31;52726;48.852;9.152;2023-07-13T05:49:47;17.64;70.37
65972;SHT31;52726;48.852;9.152;2023-07-13T05:52:12;17.67;69.70
65972;SHT31;52726;48.852;9.152;2023-07-13T05:54:37;17.64;70.42
65972;SHT31;52726;48.852;9.152;2023-07-13T05:57:03;17.70;70.17
65972;SHT31;52726;48.852;9.152;2023-07-13T05:59:28;17.75;70.15
65972;SHT31;52726;48.852;9.152;2023-07-13T06:01:53;17.82;68.82
65972;SHT31;52726;48.852;9.152;2023-07-13T06:04:19;17.97;69.40
65972;SHT31;52726;48.852;9.152;2023-07-13T06:06:45;18.18;69.04
65972;SHT31;52726;48.852;9.152;2023-07-13T06:09:10;18.30;68.21
65972;SHT31;52726;48.852;9.152;2023-07-13T06:11:36;18.42;66.90
65972;SHT31;52726;48.852;9.152;2023-07-13T06:14:01;18.60;66.66
65972;SHT31;52726;48.852;9.152;2023-07-13T06:16:27;18.71;64.34
65972;SHT31;52726;48.852;9.152;2023-07-13T06:18:52;18.71;64.15
65972;SHT31;52726;48.852;9.152;2023-07-13T06:21:19;18.76;64.87
65972;SHT31;52726;48.852;9.152;2023-07-13T06:23:46;19.04;63.55
65972;SHT31;52726;48.852;9.152;2023-07-13T06:26:15;19.18;63.56
65972;SHT31;52726;48.852;9.152;2023-07-13T06:28:40;19.24;61.79
65972;SHT31;52726;48.852;9.152;2023-07-13T06:31:07;19.29;61.97
65972;SHT31;52726;48.852;9.152;2023-07-13T06:33:33;19.34;61.60
65972;SHT31;52726;48.852;9.152;2023-07-13T06:35:59;19.55;61.96
65972;SHT31;52726;48.852;9.152;2023-07-13T06:38:24;20.11;61.17
65972;SHT31;52726;48.852;9.152;2023-07-13T06:40:49;20.99;59.59
65972;SHT31;52726;48.852;9.152;2023-07-13T06:46:36;22.76;49.95
65972;SHT31;52726;48.852;9.152;2023-07-13T06:49:02;22.81;51.34
65972;SHT31;52726;48.852;9.152;2023-07-13T06:51:27;22.98;51.93
65972;SHT31;52726;48.852;9.152;2023-07-13T06:53:52;23.27;50.71
65972;SHT31;52726;48.852;9.152;2023-07-13T06:56:19;23.95;50.43
65972;SHT31;52726;48.852;9.152;2023-07-13T06:58:44;24.01;47.10
65972;SHT31;52726;48.852;9.152;2023-07-13T07:01:10;24.05;47.99
65972;SHT31;52726;48.852;9.152;2023-07-13T07:03:35;23.94;48.59
65972;SHT31;52726;48.852;9.152;2023-07-13T07:06:21;23.74;48.44
65972;SHT31;52726;48.852;9.152;2023-07-13T07:08:51;23.70;48.69
65972;SHT31;52726;48.852;9.152;2023-07-13T07:11:21;24.57;48.27
65972;SHT31;52726;48.852;9.152;2023-07-13T07:13:48;24.98;45.64
65972;SHT31;52726;48.852;9.152;2023-07-13T07:16:14;25.34;45.57
65972;SHT31;52726;48.852;9.152;2023-07-13T07:18:39;25.55;44.02
65972;SHT31;52726;48.852;9.152;2023-07-13T07:21:04;25.42;43.04
65972;SHT31;52726;48.852;9.152;2023-07-13T07:23:30;24.73;44.18
65972;SHT31;52726;48.852;9.152;2023-07-13T07:25:55;25.01;43.55
65972;SHT31;52726;48.852;9.152;2023-07-13T07:28:21;25.62;43.73
65972;SHT31;52726;48.852;9.152;2023-07-13T07:30:47;25.77;43.73
65972;SHT31;52726;48.852;9.152;2023-07-13T07:33:13;26.80;43.03
65972;SHT31;52726;48.852;9.152;2023-07-13T07:35:38;26.83;41.20
65972;SHT31;52726;48.852;9.152;2023-07-13T07:38:04;26.35;39.78
65972;SHT31;52726;48.852;9.152;2023-07-13T07:40:29;25.89;39.22
65972;SHT31;52726;48.852;9.152;2023-07-13T07:42:56;26.13;42.39
65972;SHT31;52726;48.852;9.152;2023-07-13T07:45:21;26.40;40.82
65972;SHT31;52726;48.852;9.152;2023-07-13T07:47:47;25.84;39.50
65972;SHT31;52726;48.852;9.152;2023-07-13T07:50:12;26.45;41.90
65972;SHT31;52726;48.852;9.152;2023-07-13T07:52:38;26.16;39.50
65972;SHT31;52726;48.852;9.152;2023-07-13T07:55:05;26.40;41.14
65972;SHT31;52726;48.852;9.152;2023-07-13T07:57:31;26.30;40.93
65972;SHT31;52726;48.852;9.152;2023-07-13T07:59:56;26.24;39.66
65972;SHT31;52726;48.852;9.152;2023-07-13T08:02:21;26.12;41.11
65972;SHT31;52726;48.852;9.152;2023-07-13T08:04:47;26.32;40.52
65972;SHT31;52726;48.852;9.152;2023-07-13T08:07:12;26.69;39.45
65972;SHT31;52726;48.852;9.152;2023-07-13T08:09:38;26.04;39.73
65972;SHT31;52726;48.852;9.152;2023-07-13T08:12:03;26.41;39.81
65972;SHT31;52726;48.852;9.152;2023-07-13T08:14:29;27.17;39.93
65972;SHT31;52726;48.852;9.152;2023-07-13T08:16:54;27.75;38.49
65972;SHT31;52726;48.852;9.152;2023-07-13T08:19:20;27.85;38.49
65972;SHT31;52726;48.852;9.152;2023-07-13T08:21:45;26.99;36.92
65972;SHT31;52726;48.852;9.152;2023-07-13T08:24:13;26.73;37.95
65972;SHT31;52726;48.852;9.152;2023-07-13T08:26:38;27.33;38.18
65972;SHT31;52726;48.852;9.152;2023-07-13T08:29:04;27.59;38.48
65972;SHT31;52726;48.852;9.152;2023-07-13T08:31:29;27.78;37.39
65972;SHT31;52726;48.852;9.152;2023-07-13T08:33:54;28.16;38.65
65972;SHT31;52726;48.852;9.152;2023-07-13T08:36:20;28.57;37.43
65972;SHT31;52726;48.852;9.152;2023-07-13T08:38:45;28.40;34.53
65972;SHT31;52726;48.852;9.152;2023-07-13T08:41:16;27.59;37.45
65972;SHT31;52726;48.852;9.152;2023-07-13T08:43:45;27.16;36.05
65972;SHT31;52726;48.852;9.152;2023-07-13T08:46:19;27.23;36.95
65972;SHT31;52726;48.852;9.152;2023-07-13T08:48:54;27.38;38.04
65972;SHT31;52726;48.852;9.152;2023-07-13T08:51:47;27.34;38.00
65972;SHT31;52726;48.852;9.152;2023-07-13T08:54:30;27.22;38.40
65972;SHT31;52726;48.852;9.152;2023-07-13T08:56:57;26.90;38.62
65972;SHT31;52726;48.852;9.152;2023-07-13T08:59:27;26.96;39.77
65972;SHT31;52726;48.852;9.152;2023-07-13T09:04:35;26.85;37.98
65972;SHT31;52726;48.852;9.152;2023-07-13T09:12:35;26.45;39.69
65972;SHT31;52726;48.852;9.152;2023-07-13T09:15:03;26.98;39.40
65972;SHT31;52726;48.852;9.152;2023-07-13T09:17:35;26.95;39.55
65972;SHT31;52726;48.852;9.152;2023-07-13T09:22:47;27.51;37.97
65972;SHT31;52726;48.852;9.152;2023-07-13T09:25:29;27.13;37.65
65972;SHT31;52726;48.852;9.152;2023-07-13T09:27:59;27.51;37.28
65972;SHT31;52726;48.852;9.152;2023-07-13T09:30:36;27.34;37.82
65972;SHT31;52726;48.852;9.152;2023-07-13T09:33:03;26.98;36.74
65972;SHT31;52726;48.852;9.152;2023-07-13T09:35:29;27.53;38.32
65972;SHT31;52726;48.852;9.152;2023-07-13T09:38:11;27.57;36.58
65972;SHT31;52726;48.852;9.152;2023-07-13T09:40:59;27.64;38.53
65972;SHT31;52726;48.852;9.152;2023-07-13T09:43:26;26.78;36.70
65972;SHT31;52726;48.852;9.152;2023-07-13T09:45:55;26.58;37.22
65972;SHT31;52726;48.852;9.152;2023-07-13T09:48:20;26.55;37.53
65972;SHT31;52726;48.852;9.152;2023-07-13T09:50:46;27.27;39.01
65972;SHT31;52726;48.852;9.152;2023-07-13T09:53:14;28.32;37.14
65972;SHT31;52726;48.852;9.152;2023-07-13T09:55:41;27.85;37.09
65972;SHT31;52726;48.852;9.152;2023-07-13T09:58:14;27.93;35.77
65972;SHT31;52726;48.852;9.152;2023-07-13T10:00:41;27.43;37.79
65972;SHT31;52726;48.852;9.152;2023-07-13T10:03:20;27.61;39.16
65972;SHT31;52726;48.852;9.152;2023-07-13T10:05:48;27.68;37.40
65972;SHT31;52726;48.852;9.152;2023-07-13T10:08:35;27.99;38.62
65972;SHT31;52726;48.852;9.152;2023-07-13T10:11:12;28.61;37.29
65972;SHT31;52726;48.852;9.152;2023-07-13T10:13:51;27.78;37.38
65972;SHT31;52726;48.852;9.152;2023-07-13T10:16:17;26.73;40.38
65972;SHT31;52726;48.852;9.152;2023-07-13T10:18:49;26.41;39.16
65972;SHT31;52726;48.852;9.152;2023-07-13T10:21:21;26.16;39.98
65972;SHT31;52726;48.852;9.152;2023-07-13T10:23:50;26.75;38.38
65972;SHT31;52726;48.852;9.152;2023-07-13T10:26:21;26.78;38.29
65972;SHT31;52726;48.852;9.152;2023-07-13T10:28:52;26.72;39.32
65972;SHT31;52726;48.852;9.152;2023-07-13T10:31:21;26.65;39.31
65972;SHT31;52726;48.852;9.152;2023-07-13T10:33:46;26.59;39.92
65972;SHT31;52726;48.852;9.152;2023-07-13T10:38:40;26.32;38.87
65972;SHT31;52726;48.852;9.152;2023-07-13T10:41:09;26.75;38.49
65972;SHT31;52726;48.852;9.152;2023-07-13T10:43:42;26.72;37.01
65972;SHT31;52726;48.852;9.152;2023-07-13T10:46:11;26.17;38.49
65972;SHT31;52726;48.852;9.152;2023-07-13T10:48:39;26.37;40.89
65972;SHT31;52726;48.852;9.152;2023-07-13T10:51:06;26.00;39.34
65972;SHT31;52726;48.852;9.152;2023-07-13T10:53:35;25.29;39.62
65972;SHT31;52726;48.852;9.152;2023-07-13T10:56:16;25.82;41.06
65972;SHT31;52726;48.852;9.152;2023-07-13T10:58:44;26.48;37.22
65972;SHT31;52726;48.852;9.152;2023-07-13T11:01:18;26.65;39.47
65972;SHT31;52726;48.852;9.152;2023-07-13T11:06:13;27.30;38.17
65972;SHT31;52726;48.852;9.152;2023-07-13T11:16:34;25.65;40.70
65972;SHT31;52726;48.852;9.152;2023-07-13T11:21:29;26.07;37.86
65972;SHT31;52726;48.852;9.152;2023-07-13T11:24:16;26.58;40.92
65972;SHT31;52726;48.852;9.152;2023-07-13T11:31:59;27.65;38.06
65972;SHT31;52726;48.852;9.152;2023-07-13T11:34:34;27.34;38.69
65972;SHT31;52726;48.852;9.152;2023-07-13T11:37:01;26.73;37.19
65972;SHT31;52726;48.852;9.152;2023-07-13T11:39:37;26.41;39.19
65972;SHT31;52726;48.852;9.152;2023-07-13T11:42:10;26.21;37.97
65972;SHT31;52726;48.852;9.152;2023-07-13T11:44:41;25.98;39.04
65972;SHT31;52726;48.852;9.152;2023-07-13T11:47:14;26.16;39.18
65972;SHT31;52726;48.852;9.152;2023-07-13T11:49:45;26.21;39.61
65972;SHT31;52726;48.852;9.152;2023-07-13T11:52:16;25.82;39.97
65972;SHT31;52726;48.852;9.152;2023-07-13T11:54:51;25.75;39.67
65972;SHT31;52726;48.852;9.152;2023-07-13T11:57:36;25.90;39.24
65972;SHT31;52726;48.852;9.152;2023-07-13T12:00:29;26.17;39.55
65972;SHT31;52726;48.852;9.152;2023-07-13T12:02:59;26.59;40.45
65972;SHT31;52726;48.852;9.152;2023-07-13T12:05:26;27.00;38.00
65972;SHT31;52726;48.852;9.152;2023-07-13T12:07:51;27.03;39.14
65972;SHT31;52726;48.852;9.152;2023-07-13T12:10:26;26.86;37.35
65972;SHT31;52726;48.852;9.152;2023-07-13T12:13:04;26.58;39.16
65972;SHT31;52726;48.852;9.152;2023-07-13T12:15:41;26.67;38.99
65972;SHT31;52726;48.852;9.152;2023-07-13T12:18:22;26.89;37.80
65972;SHT31;52726;48.852;9.152;2023-07-13T12:20:50;26.72;36.83
65972;SHT31;52726;48.852;9.152;2023-07-13T12:23:24;26.47;37.16
65972;SHT31;52726;48.852;9.152;2023-07-13T12:25:50;26.71;37.49
65972;SHT31;52726;48.852;9.152;2023-07-13T12:28:43;26.73;36.67
65972;SHT31;52726;48.852;9.152;2023-07-13T12:31:35;26.38;36.47
65972;SHT31;52726;48.852;9.152;2023-07-13T12:34:15;26.93;37.80
65972;SHT31;52726;48.852;9.152;2023-07-13T12:36:47;26.90;36.32
65972;SHT31;52726;48.852;9.152;2023-07-13T12:39:19;26.93;37.62
65972;SHT31;52726;48.852;9.152;2023-07-13T12:41:47;26.85;37.39
65972;SHT31;52726;48.852;9.152;2023-07-13T12:44:18;27.54;36.92
65972;SHT31;52726;48.852;9.152;2023-07-13T12:47:03;27.78;37.21
65972;SHT31;52726;48.852;9.152;2023-07-13T12:49:31;28.06;36.84
65972;SHT31;52726;48.852;9.152;2023-07-13T12:52:03;27.99;34.37
65972;SHT31;52726;48.852;9.152;2023-07-13T12:54:30;27.44;37.40
65972;SHT31;52726;48.852;9.152;2023-07-13T12:56:58;27.58;36.07
65972;SHT31;52726;48.852;9.152;2023-07-13T12:59:28;27.13;35.17
65972;SHT31;52726;48.852;9.152;2023-07-13T13:01:54;26.79;35.00
65972;SHT31;52726;48.852;9.152;2023-07-13T13:04:20;26.78;38.73
65972;SHT31;52726;48.852;9.152;2023-07-13T13:06:58;26.83;38.05
65972;SHT31;52726;48.852;9.152;2023-07-13T13:09:25;26.67;36.58
65972;SHT31;52726;48.852;9.152;2023-07-13T13:11:51;26.95;37.27
65972;SHT31;52726;48.852;9.152;2023-07-13T13:14:17;27.20;36.99
65972;SHT31;52726;48.852;9.152;2023-07-13T13:16:49;27.20;35.81
65972;SHT31;52726;48.852;9.152;2023-07-13T13:19:19;26.82;35.66
65972;SHT31;52726;48.852;9.152;2023-07-13T13:21:47;26.52;35.13
65972;SHT31;52726;48.852;9.152;2023-07-13T13:27:34;26.92;37.56
65972;SHT31;52726;48.852;9.152;2023-07-13T13:30:00;26.72;37.22
65972;SHT31;52726;48.852;9.152;2023-07-13T13:32:25;26.73;35.76
65972;SHT31;52726;48.852;9.152;2023-07-13T13:34:51;27.11;36.95
65972;SHT31;52726;48.852;9.152;2023-07-13T13:40:44;27.48;37.55
65972;SHT31;52726;48.852;9.152;2023-07-13T13:43:24;27.41;35.29
65972;SHT31;52726;48.852;9.152;2023-07-13T13:49:30;26.86;34.58
65972;SHT31;52726;48.852;9.152;2023-07-13T13:55:17;26.71;36.38
65972;SHT31;52726;48.852;9.152;2023-07-13T13:57:45;26.78;35.39
65972;SHT31;52726;48.852;9.152;2023-07-13T14:00:12;26.71;37.72
65972;SHT31;52726;48.852;9.152;2023-07-13T14:02:40;26.83;37.51
65972;SHT31;52726;48.852;9.152;2023-07-13T14:05:12;26.98;36.15
65972;SHT31;52726;48.852;9.152;2023-07-13T14:07:38;26.96;35.51
65972;SHT31;52726;48.852;9.152;2023-07-13T14:10:13;26.65;35.65
65972;SHT31;52726;48.852;9.152;2023-07-13T14:12:41;26.38;35.18
65972;SHT31;52726;48.852;9.152;2023-07-13T14:15:16;26.56;36.51
65972;SHT31;52726;48.852;9.152;2023-07-13T14:17:43;26.61;35.12
65972;SHT31;52726;48.852;9.152;2023-07-13T14:20:12;26.55;36.02
65972;SHT31;52726;48.852;9.152;2023-07-13T14:22:37;26.52;34.58
65972;SHT31;52726;48.852;9.152;2023-07-13T14:25:03;26.68;33.74
65972;SHT31;52726;48.852;9.152;2023-07-13T14:27:28;26.67;34.49
65972;SHT31;52726;48.852;9.152;2023-07-13T14:29:54;26.58;34.80
65972;SHT31;52726;48.852;9.152;2023-07-13T14:32:19;26.37;35.69
65972;SHT31;52726;48.852;9.152;2023-07-13T14:34:44;26.20;36.07
65972;SHT31;52726;48.852;9.152;2023-07-13T14:37:14;26.42;35.81
65972;SHT31;52726;48.852;9.152;2023-07-13T14:39:43;26.31;35.84
65972;SHT31;52726;48.852;9.152;2023-07-13T14:42:09;26.28;37.42
65972;SHT31;52726;48.852;9.152;2023-07-13T14:44:35;26.51;37.27
65972;SHT31;52726;48.852;9.152;2023-07-13T14:47:03;26.65;36.62
65972;SHT31;52726;48.852;9.152;2023-07-13T14:49:32;26.83;37.40
65972;SHT31;52726;48.852;9.152;2023-07-13T14:51:59;26.83;36.19
65972;SHT31;52726;48.852;9.152;2023-07-13T14:54:26;26.90;38.20
65972;SHT31;52726;48.852;9.152;2023-07-13T14:56:51;26.89;35.73
65972;SHT31;52726;48.852;9.152;2023-07-13T14:59:17;26.42;36.05
65972;SHT31;52726;48.852;9.152;2023-07-13T15:01:45;26.61;38.19
65972;SHT31;52726;48.852;9.152;2023-07-13T15:04:11;26.65;37.76
65972;SHT31;52726;48.852;9.152;2023-07-13T15:07:00;26.75;36.93
65972;SHT31;52726;48.852;9.152;2023-07-13T15:09:27;26.49;36.66
65972;SHT31;52726;48.852;9.152;2023-07-13T15:11:55;26.49;36.92
65972;SHT31;52726;48.852;9.152;2023-07-13T15:14:21;26.37;36.93
65972;SHT31;52726;48.852;9.152;2023-07-13T15:16:49;26.65;37.69
65972;SHT31;52726;48.852;9.152;2023-07-13T15:19:16;26.71;38.39
65972;SHT31;52726;48.852;9.152;2023-07-13T15:21:42;26.67;36.90
65972;SHT31;52726;48.852;9.152;2023-07-13T15:24:08;26.51;37.13
65972;SHT31;52726;48.852;9.152;2023-07-13T15:26:35;26.42;37.06
65972;SHT31;52726;48.852;9.152;2023-07-13T15:29:00;26.42;38.01
65972;SHT31;52726;48.852;9.152;2023-07-13T15:31:26;26.01;37.15
65972;SHT31;52726;48.852;9.152;2023-07-13T15:33:55;25.77;38.35
65972;SHT31;52726;48.852;9.152;2023-07-13T15:36:29;25.86;38.46
65972;SHT31;52726;48.852;9.152;2023-07-13T15:38:55;26.17;37.64
65972;SHT31;52726;48.852;9.152;2023-07-13T15:41:23;26.10;36.93
65972;SHT31;52726;48.852;9.152;2023-07-13T15:43:50;26.27;37.40
65972;SHT31;52726;48.852;9.152;2023-07-13T15:46:17;26.25;38.65
65972;SHT31;52726;48.852;9.152;2023-07-13T15:48:43;26.35;37.83
65972;SHT31;52726;48.852;9.152;2023-07-13T15:51:14;26.58;38.18
65972;SHT31;52726;48.852;9.152;2023-07-13T15:53:43;26.32;37.14
65972;SHT31;52726;48.852;9.152;2023-07-13T15:56:21;26.42;39.70
65972;SHT31;52726;48.852;9.152;2023-07-13T15:58:47;26.28;37.46
65972;SHT31;52726;48.852;9.152;2023-07-13T16:01:13;26.37;37.61
65972;SHT31;52726;48.852;9.152;2023-07-13T16:03:38;26.37;38.23
65972;SHT31;52726;48.852;9.152;2023-07-13T16:06:11;26.34;38.49
65972;SHT31;52726;48.852;9.152;2023-07-13T16:08:39;26.45;38.25
65972;SHT31;52726;48.852;9.152;2023-07-13T16:11:12;26.47;36.39
65972;SHT31;52726;48.852;9.152;2023-07-13T16:13:42;26.30;36.26
65972;SHT31;52726;48.852;9.152;2023-07-13T16:16:11;26.14;37.64
65972;SHT31;52726;48.852;9.152;2023-07-13T16:18:36;25.87;37.03
65972;SHT31;52726;48.852;9.152;2023-07-13T16:21:01;25.92;36.67
65972;SHT31;52726;48.852;9.152;2023-07-13T16:23:30;25.96;37.89
65972;SHT31;52726;48.852;9.152;2023-07-13T16:25:56;26.10;37.57